createdAt,value
2023-03-27T00:01:28.049Z,0.50
2023-03-27T00:03:55.590Z,0.60
2023-03-27T00:06:24.795Z,0.40
2023-03-27T00:08:52.458Z,0.50
2023-03-27T00:11:22.181Z,0.40
2023-03-27T00:13:54.405Z,0.50
2023-03-27T00:16:26.639Z,0.50
2023-03-27T00:18:54.526Z,0.50
2023-03-27T00:21:22.363Z,0.60
2023-03-27T00:23:56.946Z,0.50
2023-03-27T00:26:32.921Z,0.60
2023-03-27T00:28:59.768Z,0.57
2023-03-27T00:31:27.054Z,0.60
2023-03-27T00:33:53.974Z,0.50
2023-03-27T00:36:21.232Z,0.50
2023-03-27T00:38:48.238Z,0.50
2023-03-27T00:41:15.495Z,0.40
2023-03-27T00:43:44.300Z,0.55
2023-03-27T00:46:31.459Z,2.45
2023-03-27T00:49:04.840Z,0.50
2023-03-27T00:51:32.802Z,0.40
2023-03-27T00:54:00.804Z,0.55
2023-03-27T00:56:27.935Z,0.50
2023-03-27T00:59:08.224Z,0.50
2023-03-27T01:01:36.037Z,0.50
2023-03-27T01:04:09.049Z,0.50
2023-03-27T01:06:38.533Z,0.52
2023-03-27T01:09:06.077Z,0.50
2023-03-27T01:11:45.228Z,0.50
2023-03-27T01:14:26.422Z,0.45
2023-03-27T01:17:08.447Z,0.50
2023-03-27T01:19:59.792Z,0.60
2023-03-27T01:22:54.877Z,0.60
2023-03-27T01:25:48.353Z,0.50
2023-03-27T01:28:45.956Z,0.50
2023-03-27T01:31:31.772Z,0.50
2023-03-27T01:34:38.821Z,0.60
2023-03-27T01:37:44.072Z,0.60
2023-03-27T01:40:18.256Z,0.50
2023-03-27T01:42:49.402Z,0.60
2023-03-27T01:45:21.515Z,0.60
2023-03-27T01:47:54.694Z,0.60
2023-03-27T01:50:27.287Z,0.50
2023-03-27T01:52:59.910Z,0.50
2023-03-27T01:55:33.259Z,0.60
2023-03-27T01:58:05.053Z,0.60
2023-03-27T02:00:51.369Z,0.50
2023-03-27T02:03:27.638Z,0.43
2023-03-27T02:08:45.673Z,0.50
2023-03-27T02:11:17.553Z,0.50
2023-03-27T02:13:48.907Z,0.50
2023-03-27T02:16:29.081Z,0.57
2023-03-27T02:19:03.578Z,0.70
2023-03-27T02:21:33.404Z,0.50
2023-03-27T02:24:02.175Z,0.50
2023-03-27T02:26:31.219Z,0.60
2023-03-27T02:29:15.980Z,0.50
2023-03-27T02:34:40.291Z,0.60
2023-03-27T02:37:19.189Z,0.50
2023-03-27T02:39:57.644Z,0.60
2023-03-27T02:42:34.250Z,0.50
2023-03-27T02:45:10.210Z,0.80
2023-03-27T02:47:42.191Z,0.60
2023-03-27T02:50:16.435Z,0.63
2023-03-27T02:52:46.759Z,0.60
2023-03-27T02:55:21.107Z,0.60
2023-03-27T03:00:26.259Z,0.50
2023-03-27T03:03:01.700Z,0.60
2023-03-27T03:05:32.249Z,0.70
2023-03-27T03:07:59.829Z,0.60
2023-03-27T03:10:27.617Z,0.60
2023-03-27T03:12:56.594Z,0.60
2023-03-27T03:15:28.451Z,0.60
2023-03-27T03:17:55.688Z,0.60
2023-03-27T03:20:23.931Z,0.70
2023-03-27T03:22:50.771Z,0.70
2023-03-27T03:25:18.159Z,0.60
2023-03-27T03:27:45.830Z,0.60
2023-03-27T03:30:16.604Z,0.60
2023-03-27T03:32:47.617Z,0.70
2023-03-27T03:35:14.780Z,0.70
2023-03-27T03:37:41.665Z,0.60
2023-03-27T03:40:12.040Z,0.60
2023-03-27T03:42:44.820Z,0.60
2023-03-27T03:45:12.113Z,0.60
2023-03-27T03:47:40.618Z,0.70
2023-03-27T03:50:08.464Z,0.60
2023-03-27T03:52:35.960Z,0.68
2023-03-27T03:55:04.599Z,0.60
2023-03-27T03:57:40.145Z,0.70
2023-03-27T04:00:14.372Z,0.60
2023-03-27T04:02:44.230Z,0.50
2023-03-27T04:05:11.753Z,0.80
2023-03-27T04:07:39.904Z,0.70
2023-03-27T04:10:11.828Z,0.50
2023-03-27T04:12:39.116Z,0.60
2023-03-27T04:15:07.518Z,0.60
2023-03-27T04:17:34.463Z,0.50
2023-03-27T04:20:05.732Z,0.60
2023-03-27T04:22:38.081Z,0.60
2023-03-27T04:25:06.555Z,0.70
2023-03-27T04:27:34.029Z,0.60
2023-03-27T04:30:02.326Z,0.70
2023-03-27T04:32:29.538Z,0.60
2023-03-27T04:34:56.368Z,0.70
2023-03-27T04:37:24.663Z,0.70
2023-03-27T04:39:52.555Z,0.60
2023-03-27T04:42:23.554Z,0.60
2023-03-27T04:44:52.395Z,0.60
2023-03-27T04:47:20.934Z,0.77
2023-03-27T04:49:51.007Z,0.70
2023-03-27T04:52:18.667Z,0.60
2023-03-27T04:54:47.043Z,0.60
2023-03-27T04:57:16.224Z,0.60
2023-03-27T04:59:43.216Z,0.70
2023-03-27T05:02:13.313Z,0.50
2023-03-27T05:04:40.606Z,0.60
2023-03-27T05:07:07.401Z,0.70
2023-03-27T05:09:34.217Z,0.60
2023-03-27T05:12:02.485Z,0.60
2023-03-27T05:14:32.166Z,0.50
2023-03-27T05:17:00.852Z,0.60
2023-03-27T05:19:27.722Z,0.70
2023-03-27T05:21:58.618Z,0.60
2023-03-27T05:24:25.470Z,0.50
2023-03-27T05:26:53.951Z,0.60
2023-03-27T05:29:22.560Z,0.60
2023-03-27T05:32:02.772Z,0.60
2023-03-27T05:34:36.688Z,0.57
2023-03-27T05:37:11.976Z,0.70
2023-03-27T05:39:39.040Z,0.70
2023-03-27T05:42:06.439Z,0.50
2023-03-27T05:44:34.801Z,0.68
2023-03-27T05:47:02.149Z,0.60
2023-03-27T05:49:30.575Z,0.70
2023-03-27T05:51:58.689Z,0.65
2023-03-27T05:54:25.950Z,0.60
2023-03-27T05:56:52.865Z,0.70
2023-03-27T05:59:20.634Z,0.60
2023-03-27T06:01:49.546Z,0.60
2023-03-27T06:04:17.816Z,0.70
2023-03-27T06:06:45.381Z,0.60
2023-03-27T06:09:12.682Z,0.63
2023-03-27T06:11:40.555Z,0.70
2023-03-27T06:14:10.708Z,0.60
2023-03-27T06:16:38.213Z,0.50
2023-03-27T06:19:15.687Z,0.60
2023-03-27T06:21:42.582Z,0.50
2023-03-27T06:24:10.344Z,0.60
2023-03-27T06:26:40.689Z,0.60
2023-03-27T06:29:08.129Z,0.60
2023-03-27T06:31:36.241Z,0.60
2023-03-27T06:34:03.476Z,0.60
2023-03-27T06:36:33.030Z,0.55
2023-03-27T06:39:03.589Z,0.60
2023-03-27T06:41:30.649Z,0.60
2023-03-27T06:43:58.095Z,0.50
2023-03-27T06:46:32.209Z,0.70
2023-03-27T06:49:05.718Z,0.60
2023-03-27T06:51:34.261Z,0.50
2023-03-27T06:54:01.355Z,0.50
2023-03-27T06:56:28.840Z,0.50
2023-03-27T06:58:58.284Z,0.60
2023-03-27T07:01:25.180Z,0.60
2023-03-27T07:03:52.690Z,0.60
2023-03-27T07:06:25.238Z,0.50
2023-03-27T07:08:53.563Z,0.50
2023-03-27T07:11:20.540Z,0.50
2023-03-27T07:13:47.614Z,0.40
2023-03-27T07:16:14.595Z,0.40
2023-03-27T07:18:42.178Z,0.50
2023-03-27T07:21:11.386Z,0.50
2023-03-27T07:23:38.200Z,0.40
2023-03-27T07:26:07.234Z,0.40
2023-03-27T07:28:34.249Z,0.40
2023-03-27T07:31:10.498Z,0.40
2023-03-27T07:33:48.039Z,0.40
2023-03-27T07:36:17.406Z,0.35
2023-03-27T07:38:46.760Z,0.40
2023-03-27T07:41:15.693Z,0.40
2023-03-27T07:43:42.659Z,0.40
2023-03-27T07:46:14.214Z,0.40
2023-03-27T07:48:41.404Z,0.30
2023-03-27T07:51:13.783Z,0.30
2023-03-27T07:53:41.675Z,0.30
2023-03-27T07:56:09.251Z,0.30
2023-03-27T07:58:46.631Z,0.30
2023-03-27T08:01:13.629Z,0.30
2023-03-27T08:03:44.189Z,0.30
2023-03-27T08:06:14.411Z,0.20
2023-03-27T08:08:41.319Z,0.20
2023-03-27T08:11:19.457Z,0.30
2023-03-27T08:13:51.672Z,0.20
2023-03-27T08:16:19.671Z,0.20
2023-03-27T08:18:47.439Z,0.30
2023-03-27T08:21:14.565Z,0.30
2023-03-27T08:23:42.882Z,0.30
2023-03-27T08:26:09.958Z,0.25
2023-03-27T08:28:38.302Z,0.30
2023-03-27T08:31:11.538Z,0.30
2023-03-27T08:33:43.105Z,0.30
2023-03-27T08:36:12.089Z,0.20
2023-03-27T08:38:45.445Z,0.20
2023-03-27T08:41:27.362Z,0.30
2023-03-27T08:43:57.277Z,0.20
2023-03-27T08:46:29.644Z,0.30
2023-03-27T08:49:02.192Z,0.30
2023-03-27T08:51:33.924Z,0.20
2023-03-27T08:54:07.167Z,0.10
2023-03-27T08:56:34.620Z,0.10
2023-03-27T08:59:04.375Z,0.20
2023-03-27T09:01:45.643Z,0.20
2023-03-27T09:04:22.100Z,0.20
2023-03-27T09:07:00.840Z,1.20
2023-03-27T09:09:42.920Z,0.10
2023-03-27T09:12:38.305Z,0.10
2023-03-27T09:15:11.200Z,0.10
2023-03-27T09:17:43.971Z,0.10
2023-03-27T09:20:19.163Z,0.10
2023-03-27T09:22:53.434Z,0.10
2023-03-27T09:27:58.090Z,0.10
2023-03-27T09:30:29.706Z,0.10
2023-03-27T09:33:20.877Z,0.40
2023-03-27T09:35:48.609Z,0.20
2023-03-27T09:38:29.944Z,0.10
2023-03-27T09:41:01.548Z,0.10
2023-03-27T09:43:39.670Z,0.20
2023-03-27T09:46:08.777Z,0.20
2023-03-27T09:48:53.816Z,0.20
2023-03-27T09:51:38.310Z,0.30
2023-03-27T09:54:14.385Z,0.20
2023-03-27T09:56:44.349Z,0.20
2023-03-27T09:59:26.610Z,0.30
2023-03-27T10:01:57.824Z,0.20
2023-03-27T10:04:56.682Z,0.20
2023-03-27T10:07:25.746Z,0.20
2023-03-27T10:10:12.578Z,0.10
2023-03-27T10:12:43.540Z,0.10
2023-03-27T10:15:37.075Z,0.10
2023-03-27T10:18:08.152Z,0.10
2023-03-27T10:20:36.695Z,0.00
2023-03-27T10:23:09.126Z,0.00
2023-03-27T10:25:50.838Z,0.00
2023-03-27T10:28:21.338Z,0.10
2023-03-27T10:31:24.066Z,0.00
2023-03-27T10:33:51.768Z,0.10
2023-03-27T10:36:21.495Z,0.03
2023-03-27T10:38:55.160Z,0.00
2023-03-27T10:41:39.094Z,0.10
2023-03-27T10:44:13.523Z,0.10
2023-03-27T10:46:46.159Z,0.10
2023-03-27T10:49:27.513Z,0.10
2023-03-27T10:52:11.499Z,0.10
2023-03-27T10:54:46.889Z,0.10
2023-03-27T10:57:27.524Z,0.00
2023-03-27T11:00:00.874Z,0.00
2023-03-27T11:02:40.116Z,0.00
2023-03-27T11:05:13.156Z,0.00
2023-03-27T11:07:53.152Z,0.00
2023-03-27T11:10:23.836Z,0.00
2023-03-27T11:13:04.140Z,0.00
2023-03-27T11:15:36.804Z,0.00
2023-03-27T11:18:15.030Z,0.00
2023-03-27T11:20:46.853Z,0.10
2023-03-27T11:23:34.456Z,0.00
2023-03-27T11:26:05.995Z,0.57
2023-03-27T11:28:46.806Z,0.00
2023-03-27T11:31:22.758Z,0.00
2023-03-27T11:34:06.087Z,0.00
2023-03-27T11:36:43.549Z,0.00
2023-03-27T11:39:30.335Z,0.00
2023-03-27T11:42:00.266Z,0.00
2023-03-27T11:44:31.476Z,0.00
2023-03-27T11:47:14.249Z,0.45
2023-03-27T11:50:00.479Z,0.00
2023-03-27T11:52:37.357Z,0.00
2023-03-27T11:55:16.805Z,0.00
2023-03-27T11:57:57.382Z,0.00
2023-03-27T12:00:31.106Z,0.00
2023-03-27T12:03:24.303Z,0.00
2023-03-27T12:06:03.166Z,0.00
2023-03-27T12:08:45.456Z,0.00
2023-03-27T12:11:19.092Z,0.10
2023-03-27T12:14:19.228Z,0.00
2023-03-27T12:17:21.104Z,0.00
2023-03-27T12:20:08.129Z,0.00
2023-03-27T12:22:44.220Z,0.00
2023-03-27T12:25:44.252Z,0.10
2023-03-27T12:28:23.676Z,0.00
2023-03-27T12:30:59.685Z,0.00
2023-03-27T12:33:43.905Z,0.10
2023-03-27T12:36:20.795Z,0.00
2023-03-27T12:38:47.893Z,0.00
2023-03-27T12:41:23.358Z,0.10
2023-03-27T12:44:00.275Z,0.00
2023-03-27T12:46:35.648Z,0.10
2023-03-27T12:49:47.449Z,0.10
2023-03-27T12:52:15.685Z,0.10
2023-03-27T12:55:09.913Z,0.10
2023-03-27T12:57:44.141Z,0.00
2023-03-27T13:00:23.984Z,0.17
2023-03-27T13:03:33.720Z,0.10
2023-03-27T13:06:23.128Z,0.10
2023-03-27T13:09:22.864Z,0.10
2023-03-27T13:12:07.606Z,0.00
2023-03-27T13:15:03.759Z,0.00
2023-03-27T13:17:45.681Z,0.00
2023-03-27T13:20:23.423Z,0.00
2023-03-27T13:23:05.798Z,0.00
2023-03-27T13:25:46.296Z,0.00
2023-03-27T13:28:28.286Z,0.10
2023-03-27T13:31:00.109Z,0.10
2023-03-27T13:33:40.799Z,0.10
2023-03-27T13:36:14.599Z,0.10
2023-03-27T13:39:11.963Z,0.10
2023-03-27T13:42:02.468Z,0.20
2023-03-27T13:45:06.020Z,0.10
2023-03-27T13:48:12.792Z,0.10
2023-03-27T13:51:05.443Z,0.20
2023-03-27T13:53:59.404Z,0.20
2023-03-27T13:56:55.220Z,0.10
2023-03-27T13:59:53.957Z,0.10
2023-03-27T14:02:44.799Z,0.10
2023-03-27T14:05:31.571Z,0.20
2023-03-27T14:08:19.597Z,0.20
2023-03-27T14:11:05.184Z,0.20
2023-03-27T14:13:46.002Z,0.10
2023-03-27T14:16:50.342Z,0.13
2023-03-27T14:19:38.983Z,0.10
2023-03-27T14:22:14.521Z,0.10
2023-03-27T14:24:49.021Z,0.20
2023-03-27T14:27:20.345Z,0.10
2023-03-27T14:29:49.604Z,0.10
2023-03-27T14:32:18.357Z,0.10
2023-03-27T14:34:54.728Z,0.20
2023-03-27T14:37:34.227Z,0.17
2023-03-27T14:40:17.448Z,0.30
2023-03-27T14:42:50.342Z,0.20
2023-03-27T14:45:21.994Z,0.20
2023-03-27T14:48:08.337Z,1.88
2023-03-27T14:50:38.221Z,0.10
2023-03-27T14:53:16.385Z,0.08
2023-03-27T14:55:49.404Z,0.00
2023-03-27T14:58:33.310Z,0.10
2023-03-27T15:01:02.287Z,0.00
2023-03-27T15:03:45.362Z,0.08
2023-03-27T15:06:26.817Z,0.10
2023-03-27T15:09:05.568Z,0.50
2023-03-27T15:11:40.241Z,0.10
2023-03-27T15:14:27.908Z,0.10
2023-03-27T15:17:00.208Z,0.10
2023-03-27T15:19:33.217Z,0.20
2023-03-27T15:22:03.979Z,0.20
2023-03-27T15:24:40.232Z,0.20
2023-03-27T15:27:20.429Z,0.20
2023-03-27T15:30:00.257Z,0.10
2023-03-27T15:32:32.205Z,0.17
2023-03-27T15:35:14.095Z,0.10
2023-03-27T15:37:41.617Z,0.20
2023-03-27T15:40:37.445Z,0.20
2023-03-27T15:43:21.680Z,0.20
2023-03-27T15:46:02.258Z,0.22
2023-03-27T15:48:41.238Z,0.10
2023-03-27T15:51:26.823Z,0.20
2023-03-27T15:54:00.250Z,0.30
2023-03-27T15:56:32.323Z,0.10
2023-03-27T15:59:04.374Z,0.20
2023-03-27T16:01:37.036Z,0.20
2023-03-27T16:07:54.067Z,0.10
2023-03-27T16:10:29.915Z,0.20
2023-03-27T16:13:00.501Z,0.20
2023-03-27T16:15:36.252Z,0.15
2023-03-27T16:18:13.435Z,0.20
2023-03-27T16:20:40.469Z,0.28
2023-03-27T16:23:07.757Z,0.20
2023-03-27T16:25:35.523Z,0.17
2023-03-27T16:28:02.596Z,0.20
2023-03-27T16:30:36.130Z,0.20
2023-03-27T16:33:03.296Z,0.30
2023-03-27T16:35:34.165Z,0.30
2023-03-27T16:38:23.168Z,0.20
2023-03-27T16:40:50.314Z,0.20
2023-03-27T16:43:29.468Z,0.20
2023-03-27T16:45:57.882Z,0.20
2023-03-27T16:48:25.616Z,0.20
2023-03-27T16:50:52.438Z,0.20
2023-03-27T16:53:22.257Z,0.30
2023-03-27T16:55:51.229Z,0.63
2023-03-27T16:58:18.150Z,0.20
2023-03-27T17:00:45.289Z,0.20
2023-03-27T17:03:14.261Z,0.28
2023-03-27T17:05:44.624Z,0.30
2023-03-27T17:08:15.150Z,0.30
2023-03-27T17:10:42.378Z,0.30
2023-03-27T17:13:09.549Z,0.30
2023-03-27T17:15:37.396Z,0.30
2023-03-27T17:18:05.094Z,0.30
2023-03-27T17:20:35.896Z,0.32
2023-03-27T17:23:05.703Z,0.30
2023-03-27T17:25:33.140Z,0.40
2023-03-27T17:27:59.988Z,0.40
2023-03-27T17:30:46.906Z,0.40
2023-03-27T17:33:19.817Z,0.40
2023-03-27T17:36:08.937Z,0.30
2023-03-27T17:38:36.583Z,0.30
2023-03-27T17:41:17.420Z,0.40
2023-03-27T17:43:45.352Z,0.30
2023-03-27T17:46:23.987Z,0.30
2023-03-27T17:48:51.577Z,0.30
2023-03-27T17:51:19.865Z,0.40
2023-03-27T17:53:47.469Z,0.40
2023-03-27T17:56:14.554Z,0.40
2023-03-27T17:58:44.225Z,0.40
2023-03-27T18:01:17.432Z,0.50
2023-03-27T18:03:45.238Z,0.40
2023-03-27T18:06:12.233Z,0.50
2023-03-27T18:08:41.544Z,0.30
2023-03-27T18:11:09.688Z,0.30
2023-03-27T18:13:37.487Z,0.40
2023-03-27T18:16:06.911Z,0.40
2023-03-27T18:18:34.716Z,0.40
2023-03-27T18:21:01.648Z,0.40
2023-03-27T18:23:31.134Z,0.50
2023-03-27T18:26:03.470Z,0.40
2023-03-27T18:28:34.196Z,0.38
2023-03-27T18:31:03.645Z,0.50
2023-03-27T18:33:45.894Z,0.40
2023-03-27T18:36:13.296Z,0.40
2023-03-27T18:38:42.120Z,0.40
2023-03-27T18:41:10.976Z,0.40
2023-03-27T18:43:37.843Z,0.60
2023-03-27T18:46:07.437Z,0.50
2023-03-27T18:48:38.080Z,0.40
2023-03-27T18:51:06.331Z,0.50
2023-03-27T18:53:33.255Z,0.50
2023-03-27T18:56:01.071Z,0.50
2023-03-27T18:58:29.795Z,0.50
2023-03-27T19:00:57.484Z,0.40
2023-03-27T19:03:26.868Z,0.40
2023-03-27T19:05:53.853Z,0.50
2023-03-27T19:08:22.073Z,0.50
2023-03-27T19:10:49.316Z,0.50
2023-03-27T19:13:16.363Z,0.50
2023-03-27T19:15:51.385Z,0.40
2023-03-27T19:18:18.355Z,0.50
2023-03-27T19:20:45.325Z,0.50
2023-03-27T19:23:12.200Z,0.50
2023-03-27T19:25:46.710Z,0.50
2023-03-27T19:28:16.017Z,0.50
2023-03-27T19:30:43.954Z,0.50
2023-03-27T19:33:12.729Z,0.50
2023-03-27T19:35:39.961Z,0.40
2023-03-27T19:38:07.268Z,0.50
2023-03-27T19:40:34.240Z,0.40
2023-03-27T19:43:01.066Z,0.50
2023-03-27T19:45:30.775Z,0.50
2023-03-27T19:48:00.494Z,0.60
2023-03-27T19:50:28.871Z,0.50
2023-03-27T19:53:07.559Z,0.50
2023-03-27T19:55:35.937Z,0.60
2023-03-27T19:58:02.782Z,0.50
2023-03-27T20:00:31.578Z,0.60
2023-03-27T20:03:12.993Z,0.50
2023-03-27T20:05:45.872Z,0.50
2023-03-27T20:08:23.620Z,0.50
2023-03-27T20:10:50.474Z,0.60
2023-03-27T20:13:20.308Z,0.50
2023-03-27T20:15:48.626Z,0.60
2023-03-27T20:18:18.100Z,0.60
2023-03-27T20:20:50.101Z,0.50
2023-03-27T20:23:18.453Z,0.60
2023-03-27T20:25:45.631Z,0.60
2023-03-27T20:28:12.821Z,0.60
2023-03-27T20:30:40.886Z,0.70
2023-03-27T20:33:09.375Z,0.60
2023-03-27T20:35:41.216Z,0.60
2023-03-27T20:38:13.639Z,0.50
2023-03-27T20:40:55.666Z,0.60
2023-03-27T20:43:23.553Z,0.60
2023-03-27T20:45:52.045Z,0.60
2023-03-27T20:48:21.786Z,0.60
2023-03-27T20:50:55.468Z,0.60
2023-03-27T20:53:33.847Z,0.70
2023-03-27T20:56:02.582Z,0.70
2023-03-27T20:58:34.249Z,0.70
2023-03-27T21:01:05.119Z,0.50
2023-03-27T21:03:34.984Z,0.70
2023-03-27T21:06:16.701Z,0.60
2023-03-27T21:08:45.477Z,0.63
2023-03-27T21:11:27.082Z,0.60
2023-03-27T21:13:54.038Z,0.60
2023-03-27T21:16:20.954Z,0.60
2023-03-27T21:18:47.908Z,0.70
2023-03-27T21:21:14.969Z,0.60
2023-03-27T21:23:41.833Z,0.60
2023-03-27T21:26:10.966Z,0.60
2023-03-27T21:28:37.983Z,0.70
2023-03-27T21:31:06.928Z,0.60
2023-03-27T21:33:34.032Z,0.70
2023-03-27T21:36:02.143Z,0.63
2023-03-27T21:38:29.359Z,0.60
2023-03-27T21:40:56.324Z,0.70
2023-03-27T21:43:24.570Z,0.70
2023-03-27T21:45:51.923Z,0.60
2023-03-27T21:48:18.902Z,0.60
2023-03-27T21:50:46.520Z,0.70
2023-03-27T21:53:19.901Z,0.60
2023-03-27T21:55:47.060Z,0.63
2023-03-27T21:58:13.947Z,0.60
2023-03-27T22:00:45.752Z,0.60
2023-03-27T22:03:12.578Z,0.60
2023-03-27T22:05:39.530Z,0.60
2023-03-27T22:08:06.810Z,0.60
2023-03-27T22:10:34.745Z,0.57
2023-03-27T22:13:01.847Z,0.70
2023-03-27T22:15:29.226Z,0.70
2023-03-27T22:17:58.011Z,0.60
2023-03-27T22:20:27.384Z,0.70
2023-03-27T22:22:54.687Z,0.70
2023-03-27T22:25:23.966Z,0.70
2023-03-27T22:27:51.200Z,0.70
2023-03-27T22:30:18.540Z,0.70
2023-03-27T22:32:45.546Z,0.70
2023-03-27T22:35:21.906Z,0.60
2023-03-27T22:37:48.796Z,0.70
2023-03-27T22:40:15.871Z,0.70
2023-03-27T22:42:42.743Z,0.60
2023-03-27T22:45:10.351Z,0.80
2023-03-27T22:47:37.388Z,0.80
2023-03-27T22:50:06.465Z,0.70
2023-03-27T22:52:34.751Z,0.80
2023-03-27T22:55:01.620Z,0.70
2023-03-27T22:57:28.942Z,0.70
2023-03-27T22:59:58.798Z,0.70
2023-03-27T23:02:25.888Z,0.70
2023-03-27T23:04:52.784Z,0.70
2023-03-27T23:07:22.719Z,0.70
2023-03-27T23:09:54.376Z,0.70
2023-03-27T23:12:21.212Z,0.80
2023-03-27T23:14:50.558Z,0.70
2023-03-27T23:17:23.603Z,0.80
2023-03-27T23:19:50.896Z,0.70
2023-03-27T23:22:17.754Z,0.70
2023-03-27T23:24:45.025Z,0.70
2023-03-27T23:27:13.418Z,0.60
2023-03-27T23:29:40.297Z,0.70
2023-03-27T23:32:09.734Z,0.80
2023-03-27T23:34:36.585Z,0.60
2023-03-27T23:37:03.461Z,0.80
2023-03-27T23:39:30.396Z,0.70
2023-03-27T23:41:57.503Z,0.50
2023-03-27T23:44:27.901Z,0.60
2023-03-27T23:46:54.772Z,0.70
2023-03-27T23:49:21.735Z,0.70
2023-03-27T23:51:48.661Z,0.80
2023-03-27T23:54:15.711Z,0.70
2023-03-27T23:56:42.600Z,0.70
2023-03-27T23:59:10.276Z,0.60
